createdAt,value
2023-04-05T00:00:30.045Z,4.00
2023-04-05T00:01:30.037Z,4.00
2023-04-05T00:02:30.155Z,3.70
2023-04-05T00:03:30.088Z,4.00
2023-04-05T00:04:30.218Z,4.10
2023-04-05T00:05:30.001Z,5.00
2023-04-05T00:06:30.019Z,4.70
2023-04-05T00:07:29.987Z,4.50
2023-04-05T00:08:29.992Z,4.30
2023-04-05T00:09:30.015Z,4.40
2023-04-05T00:10:30.006Z,4.30
2023-04-05T00:11:29.954Z,4.10
2023-04-05T00:12:29.956Z,4.40
2023-04-05T00:13:29.962Z,4.00
2023-04-05T00:14:29.960Z,4.40
2023-04-05T00:15:30.923Z,4.20
2023-04-05T00:16:29.962Z,3.90
2023-04-05T00:17:29.936Z,4.50
2023-04-05T00:18:29.905Z,4.90
2023-04-05T00:19:29.921Z,4.70
2023-04-05T00:20:29.888Z,4.80
2023-04-05T00:21:29.888Z,4.70
2023-04-05T00:22:29.941Z,5.10
2023-04-05T00:23:29.872Z,5.00
2023-04-05T00:24:29.901Z,4.50
2023-04-05T00:25:29.854Z,5.10
2023-04-05T00:26:29.865Z,5.00
2023-04-05T00:27:29.836Z,4.80
2023-04-05T00:28:29.890Z,4.70
2023-04-05T00:29:29.861Z,4.90
2023-04-05T00:30:29.824Z,5.20
2023-04-05T00:31:29.877Z,4.80
2023-04-05T00:32:29.845Z,4.90
2023-04-05T00:33:29.804Z,4.70
2023-04-05T00:34:29.807Z,5.00
2023-04-05T00:35:29.806Z,4.90
2023-04-05T00:36:29.796Z,5.00
2023-04-05T00:37:29.758Z,5.10
2023-04-05T00:38:29.774Z,4.90
2023-04-05T00:39:29.782Z,4.80
2023-04-05T00:40:29.748Z,5.10
2023-04-05T00:41:29.776Z,5.20
2023-04-05T00:42:29.724Z,5.40
2023-04-05T00:43:29.716Z,5.10
2023-04-05T00:44:29.748Z,4.80
2023-04-05T00:45:29.709Z,4.70
2023-04-05T00:46:29.882Z,4.80
2023-04-05T00:47:29.722Z,4.60
2023-04-05T00:48:29.727Z,4.60
2023-04-05T00:49:29.670Z,5.30
2023-04-05T00:50:29.741Z,5.60
2023-04-05T00:51:29.682Z,5.00
2023-04-05T00:52:29.653Z,5.00
2023-04-05T00:53:29.639Z,5.30
2023-04-05T00:54:29.700Z,4.70
2023-04-05T00:55:29.661Z,4.40
2023-04-05T00:56:29.653Z,4.80
2023-04-05T00:57:29.626Z,4.80
2023-04-05T00:58:29.627Z,4.50
2023-04-05T00:59:29.703Z,4.50
2023-04-05T01:00:29.624Z,5.00
2023-04-05T01:01:29.636Z,4.90
2023-04-05T01:02:29.602Z,4.90
2023-04-05T01:03:30.569Z,4.60
2023-04-05T01:04:29.576Z,4.50
2023-04-05T01:05:29.572Z,4.50
2023-04-05T01:06:29.564Z,4.30
2023-04-05T01:07:29.543Z,4.60
2023-04-05T01:08:29.530Z,4.00
2023-04-05T01:09:29.585Z,4.10
2023-04-05T01:10:29.558Z,4.40
2023-04-05T01:11:29.514Z,4.10
2023-04-05T01:12:29.530Z,4.30
2023-04-05T01:13:29.500Z,4.00
2023-04-05T01:14:29.481Z,4.00
2023-04-05T01:15:29.520Z,4.30
2023-04-05T01:16:29.497Z,4.20
2023-04-05T01:17:29.471Z,4.10
2023-04-05T01:18:29.452Z,4.40
2023-04-05T01:19:29.454Z,4.30
2023-04-05T01:20:29.484Z,4.30
2023-04-05T01:21:29.423Z,4.30
2023-04-05T01:22:29.423Z,4.00
2023-04-05T01:23:29.428Z,4.30
2023-04-05T01:24:29.409Z,4.20
2023-04-05T01:25:29.436Z,4.40
2023-04-05T01:26:29.407Z,4.50
2023-04-05T01:27:29.392Z,4.50
2023-04-05T01:28:29.372Z,4.50
2023-04-05T01:29:29.372Z,4.50
2023-04-05T01:30:29.389Z,4.20
2023-04-05T01:31:29.387Z,4.20
2023-04-05T01:32:29.362Z,4.30
2023-04-05T01:33:29.336Z,4.40
2023-04-05T01:34:29.398Z,4.20
2023-04-05T01:35:29.781Z,4.10
2023-04-05T01:36:29.334Z,4.00
2023-04-05T01:37:29.311Z,4.10
2023-04-05T01:38:29.299Z,4.40
2023-04-05T01:39:29.298Z,4.30
2023-04-05T01:40:29.311Z,4.30
2023-04-05T01:41:29.279Z,4.20
2023-04-05T01:42:29.317Z,4.50
2023-04-05T01:43:29.262Z,4.20
2023-04-05T01:44:29.257Z,4.40
2023-04-05T01:45:29.315Z,4.30
2023-04-05T01:46:29.285Z,4.60
2023-04-05T01:47:29.291Z,4.30
2023-04-05T01:48:29.224Z,4.10
2023-04-05T01:49:29.265Z,4.10
2023-04-05T01:50:29.271Z,4.40
2023-04-05T01:51:29.316Z,4.00
2023-04-05T01:52:29.198Z,4.30
2023-04-05T01:53:29.206Z,4.40
2023-04-05T01:54:29.195Z,4.30
2023-04-05T01:55:29.203Z,4.00
2023-04-05T01:56:29.177Z,4.20
2023-04-05T01:57:29.179Z,4.30
2023-04-05T01:58:29.157Z,4.30
2023-04-05T01:59:29.186Z,4.40
2023-04-05T02:00:29.204Z,4.20
2023-04-05T02:01:29.189Z,4.40
2023-04-05T02:02:29.185Z,4.40
2023-04-05T02:03:29.245Z,4.30
2023-04-05T02:04:29.117Z,4.70
2023-04-05T02:05:29.164Z,4.70
2023-04-05T02:06:29.093Z,5.00
2023-04-05T02:07:30.090Z,4.40
2023-04-05T02:08:29.109Z,4.90
2023-04-05T02:09:29.084Z,5.20
2023-04-05T02:10:29.130Z,4.90
2023-04-05T02:11:29.075Z,4.80
2023-04-05T02:12:29.058Z,4.50
2023-04-05T02:13:29.063Z,4.40
2023-04-05T02:14:29.045Z,4.60
2023-04-05T02:15:29.064Z,4.80
2023-04-05T02:16:29.083Z,4.60
2023-04-05T02:17:29.026Z,4.70
2023-04-05T02:18:29.027Z,4.80
2023-04-05T02:19:29.000Z,4.70
2023-04-05T02:20:29.005Z,4.60
2023-04-05T02:21:29.011Z,4.40
2023-04-05T02:22:28.984Z,4.50
2023-04-05T02:23:28.985Z,4.60
2023-04-05T02:24:28.978Z,4.60
2023-04-05T02:25:28.975Z,4.60
2023-04-05T02:26:28.981Z,4.50
2023-04-05T02:27:28.953Z,4.60
2023-04-05T02:28:28.963Z,4.70
2023-04-05T02:29:28.954Z,4.80
2023-04-05T02:30:28.931Z,4.90
2023-04-05T02:31:28.985Z,4.50
2023-04-05T02:32:28.945Z,4.80
2023-04-05T02:33:28.909Z,4.50
2023-04-05T02:34:28.953Z,4.60
2023-04-05T02:35:28.912Z,4.60
2023-04-05T02:36:28.920Z,4.60
2023-04-05T02:37:28.890Z,4.90
2023-04-05T02:38:28.878Z,4.60
2023-04-05T02:39:28.862Z,4.60
2023-04-05T02:40:28.866Z,4.80
2023-04-05T02:41:28.882Z,5.50
2023-04-05T02:42:28.847Z,4.80
2023-04-05T02:43:28.841Z,4.70
2023-04-05T02:44:28.833Z,4.70
2023-04-05T02:45:28.870Z,4.80
2023-04-05T02:46:28.843Z,4.80
2023-04-05T02:47:28.832Z,7.40
2023-04-05T02:48:28.803Z,6.40
2023-04-05T02:49:28.801Z,5.50
2023-04-05T02:50:28.785Z,5.20
2023-04-05T02:51:28.814Z,5.10
2023-04-05T02:52:28.781Z,5.10
2023-04-05T02:53:28.787Z,5.00
2023-04-05T02:54:28.780Z,4.80
2023-04-05T02:55:28.758Z,5.00
2023-04-05T02:56:28.774Z,5.50
2023-04-05T02:57:28.742Z,5.10
2023-04-05T02:58:28.739Z,5.00
2023-04-05T02:59:28.842Z,4.90
2023-04-05T03:00:28.734Z,4.80
2023-04-05T03:01:28.772Z,4.90
2023-04-05T03:02:28.731Z,4.70
2023-04-05T03:03:28.730Z,4.70
2023-04-05T03:04:28.698Z,4.70
2023-04-05T03:05:28.683Z,4.90
2023-04-05T03:06:28.700Z,5.10
2023-04-05T03:07:28.676Z,5.10
2023-04-05T03:08:28.663Z,5.10
2023-04-05T03:09:28.651Z,5.30
2023-04-05T03:10:28.651Z,5.20
2023-04-05T03:11:28.682Z,5.30
2023-04-05T03:12:28.628Z,5.30
2023-04-05T03:13:28.629Z,5.20
2023-04-05T03:14:28.619Z,5.50
2023-04-05T03:15:28.609Z,5.50
2023-04-05T03:16:28.681Z,5.20
2023-04-05T03:17:28.652Z,5.50
2023-04-05T03:18:28.594Z,5.50
2023-04-05T03:19:28.596Z,5.10
2023-04-05T03:20:28.585Z,5.10
2023-04-05T03:21:28.655Z,5.30
2023-04-05T03:22:28.577Z,5.70
2023-04-05T03:23:28.581Z,5.60
2023-04-05T03:24:28.544Z,5.30
2023-04-05T03:25:28.547Z,5.30
2023-04-05T03:26:28.562Z,6.50
2023-04-05T03:27:28.541Z,6.20
2023-04-05T03:28:28.681Z,6.50
2023-04-05T03:29:28.515Z,6.40
2023-04-05T03:30:28.502Z,5.90
2023-04-05T03:31:28.638Z,6.10
2023-04-05T03:32:28.534Z,5.40
2023-04-05T03:33:28.507Z,5.50
2023-04-05T03:34:28.476Z,5.30
2023-04-05T03:35:28.492Z,5.30
2023-04-05T03:36:28.485Z,5.10
2023-04-05T03:37:29.453Z,5.00
2023-04-05T03:38:28.510Z,5.20
2023-04-05T03:39:28.442Z,5.20
2023-04-05T03:40:28.475Z,4.70
2023-04-05T03:41:28.454Z,4.80
2023-04-05T03:42:28.424Z,5.00
2023-04-05T03:43:28.430Z,5.10
2023-04-05T03:44:28.404Z,5.30
2023-04-05T03:45:28.399Z,5.00
2023-04-05T03:46:28.469Z,5.50
2023-04-05T03:47:28.422Z,5.40
2023-04-05T03:48:28.397Z,5.60
2023-04-05T03:49:28.362Z,5.20
2023-04-05T03:50:28.409Z,5.40
2023-04-05T03:51:28.401Z,5.40
2023-04-05T03:52:28.346Z,5.40
2023-04-05T03:53:28.335Z,5.50
2023-04-05T03:54:28.339Z,5.40
2023-04-05T03:55:28.334Z,5.50
2023-04-05T03:56:28.418Z,5.40
2023-04-05T03:57:28.312Z,5.80
2023-04-05T03:58:28.322Z,5.70
2023-04-05T03:59:28.409Z,5.50
2023-04-05T04:00:28.283Z,5.70
2023-04-05T04:01:28.314Z,5.70
2023-04-05T04:02:28.417Z,5.30
2023-04-05T04:03:28.299Z,5.40
2023-04-05T04:04:28.334Z,5.70
2023-04-05T04:05:28.251Z,5.60
2023-04-05T04:06:28.278Z,5.70
2023-04-05T04:07:28.261Z,5.80
2023-04-05T04:08:28.233Z,6.00
2023-04-05T04:09:28.223Z,5.50
2023-04-05T04:10:28.214Z,5.50
2023-04-05T04:11:28.205Z,5.80
2023-04-05T04:12:29.237Z,5.60
2023-04-05T04:13:28.193Z,5.70
2023-04-05T04:14:28.187Z,5.40
2023-04-05T04:15:28.182Z,5.50
2023-04-05T04:16:28.826Z,5.60
2023-04-05T04:17:29.238Z,5.30
2023-04-05T04:18:28.165Z,5.30
2023-04-05T04:19:29.149Z,5.60
2023-04-05T04:20:28.136Z,5.50
2023-04-05T04:21:28.133Z,5.60
2023-04-05T04:22:28.145Z,5.90
2023-04-05T04:23:28.128Z,6.20
2023-04-05T04:24:28.116Z,6.40
2023-04-05T04:25:28.095Z,6.10
2023-04-05T04:26:28.099Z,5.70
2023-04-05T04:27:28.116Z,6.00
2023-04-05T04:28:28.095Z,6.10
2023-04-05T04:29:28.077Z,6.00
2023-04-05T04:30:28.069Z,5.90
2023-04-05T04:31:28.074Z,6.10
2023-04-05T04:32:28.112Z,5.90
2023-04-05T04:33:28.048Z,6.50
2023-04-05T04:34:28.039Z,6.20
2023-04-05T04:35:28.112Z,6.50
2023-04-05T04:36:28.038Z,6.70
2023-04-05T04:37:28.048Z,6.40
2023-04-05T04:38:28.016Z,6.40
2023-04-05T04:39:28.007Z,6.20
2023-04-05T04:40:27.999Z,5.90
2023-04-05T04:41:40.125Z,5.90
2023-04-05T04:42:28.013Z,6.00
2023-04-05T04:43:27.980Z,5.80
2023-04-05T04:44:28.005Z,5.60
2023-04-05T04:45:27.991Z,6.00
2023-04-05T04:46:27.976Z,5.40
2023-04-05T04:47:27.995Z,5.70
2023-04-05T04:48:27.951Z,6.10
2023-04-05T04:49:27.941Z,5.90
2023-04-05T04:50:27.936Z,6.20
2023-04-05T04:51:27.924Z,5.90
2023-04-05T04:52:27.951Z,6.20
2023-04-05T04:53:27.903Z,6.00
2023-04-05T04:54:27.994Z,6.10
2023-04-05T04:55:27.932Z,6.30
2023-04-05T04:56:27.895Z,6.30
2023-04-05T04:57:27.898Z,6.30
2023-04-05T04:58:27.870Z,6.20
2023-04-05T04:59:27.898Z,6.20
2023-04-05T05:00:27.875Z,6.50
2023-04-05T05:01:27.950Z,6.70
2023-04-05T05:02:30.568Z,6.70
2023-04-05T05:03:27.846Z,6.60
2023-04-05T05:04:27.950Z,6.40
2023-04-05T05:05:27.856Z,6.00
2023-04-05T05:06:27.819Z,6.40
2023-04-05T05:07:27.848Z,6.70
2023-04-05T05:08:27.814Z,6.50
2023-04-05T05:09:27.794Z,6.50
2023-04-05T05:10:27.792Z,6.50
2023-04-05T05:11:27.783Z,6.50
2023-04-05T05:12:27.804Z,6.50
2023-04-05T05:13:27.784Z,6.70
2023-04-05T05:14:27.754Z,6.40
2023-04-05T05:15:27.793Z,7.40
2023-04-05T05:16:27.790Z,6.90
2023-04-05T05:17:27.786Z,6.80
2023-04-05T05:18:27.734Z,7.40
2023-04-05T05:19:27.729Z,7.00
2023-04-05T05:20:27.726Z,7.00
2023-04-05T05:21:27.712Z,7.00
2023-04-05T05:22:27.755Z,7.00
2023-04-05T05:23:27.694Z,7.40
2023-04-05T05:24:27.698Z,7.00
2023-04-05T05:25:28.444Z,7.40
2023-04-05T05:26:27.713Z,7.30
2023-04-05T05:27:28.744Z,8.30
2023-04-05T05:28:27.663Z,9.70
2023-04-05T05:29:27.655Z,9.00
2023-04-05T05:30:28.651Z,8.20
2023-04-05T05:31:27.680Z,8.20
2023-04-05T05:32:27.685Z,8.60
2023-04-05T05:33:27.627Z,8.30
2023-04-05T05:34:27.621Z,7.90
2023-04-05T05:35:27.666Z,7.50
2023-04-05T05:36:27.606Z,7.20
2023-04-05T05:37:27.627Z,7.20
2023-04-05T05:38:27.587Z,6.90
2023-04-05T05:39:27.692Z,7.00
2023-04-05T05:40:27.580Z,6.70
2023-04-05T05:41:27.572Z,6.70
2023-04-05T05:42:27.617Z,6.20
2023-04-05T05:43:27.554Z,6.50
2023-04-05T05:44:27.564Z,6.30
2023-04-05T05:45:27.552Z,5.90
2023-04-05T05:46:27.638Z,6.40
2023-04-05T05:47:27.587Z,6.20
2023-04-05T05:48:27.723Z,6.10
2023-04-05T05:49:27.519Z,6.40
2023-04-05T05:50:27.521Z,6.60
2023-04-05T05:51:27.502Z,6.70
2023-04-05T05:52:27.524Z,6.20
2023-04-05T05:53:27.473Z,6.40
2023-04-05T05:54:28.475Z,6.50
2023-04-05T05:55:27.476Z,6.40
2023-04-05T05:56:27.461Z,6.30
2023-04-05T05:57:27.529Z,6.50
2023-04-05T05:58:27.481Z,6.50
2023-04-05T05:59:27.557Z,6.30
2023-04-05T06:00:27.472Z,6.30
2023-04-05T06:01:27.422Z,6.40
2023-04-05T06:02:27.498Z,6.30
2023-04-05T06:03:27.493Z,6.80
2023-04-05T06:04:27.489Z,7.20
2023-04-05T06:05:27.397Z,6.80
2023-04-05T06:06:27.392Z,7.10
2023-04-05T06:07:27.403Z,7.00
2023-04-05T06:08:27.374Z,7.00
2023-04-05T06:09:27.371Z,7.10
2023-04-05T06:10:27.362Z,7.20
2023-04-05T06:11:27.381Z,7.10
2023-04-05T06:12:28.755Z,7.30
2023-04-05T06:13:27.335Z,7.30
2023-04-05T06:14:27.337Z,7.20
2023-04-05T06:15:27.362Z,7.00
2023-04-05T06:16:27.389Z,6.90
2023-04-05T06:17:27.445Z,6.70
2023-04-05T06:18:27.303Z,6.60
2023-04-05T06:19:27.289Z,6.60
2023-04-05T06:20:27.310Z,6.80
2023-04-05T06:21:27.270Z,6.60
2023-04-05T06:22:27.307Z,6.60
2023-04-05T06:23:27.264Z,7.10
2023-04-05T06:24:27.267Z,6.90
2023-04-05T06:25:27.245Z,7.40
2023-04-05T06:26:27.247Z,7.70
2023-04-05T06:27:27.294Z,7.70
2023-04-05T06:28:27.221Z,7.70
2023-04-05T06:29:27.220Z,7.40
2023-04-05T06:30:27.212Z,7.60
2023-04-05T06:31:27.304Z,7.40
2023-04-05T06:32:27.220Z,8.20
2023-04-05T06:33:27.212Z,7.90
2023-04-05T06:34:27.176Z,8.20
2023-04-05T06:35:27.174Z,8.20
2023-04-05T06:36:27.827Z,7.90
2023-04-05T06:37:28.156Z,8.80
2023-04-05T06:38:27.222Z,8.20
2023-04-05T06:39:27.140Z,7.60
2023-04-05T06:40:27.133Z,7.20
2023-04-05T06:41:27.122Z,8.00
2023-04-05T06:42:28.117Z,7.20
2023-04-05T06:43:28.124Z,7.80
2023-04-05T06:44:27.098Z,7.70
2023-04-05T06:45:27.128Z,8.00
2023-04-05T06:46:27.129Z,7.70
2023-04-05T06:47:27.100Z,8.20
2023-04-05T06:48:27.066Z,8.40
2023-04-05T06:49:27.070Z,8.50
2023-04-05T06:50:27.080Z,8.00
2023-04-05T06:51:27.051Z,7.90
2023-04-05T06:52:27.041Z,7.50
2023-04-05T06:53:27.037Z,7.30
2023-04-05T06:54:27.016Z,7.50
2023-04-05T06:55:27.046Z,7.50
2023-04-05T06:56:27.016Z,7.90
2023-04-05T06:57:27.008Z,7.70
2023-04-05T06:58:27.028Z,7.50
2023-04-05T06:59:27.012Z,7.40
2023-04-05T07:00:26.979Z,8.40
2023-04-05T07:01:27.049Z,8.40
2023-04-05T07:02:27.050Z,11.70
2023-04-05T07:03:26.970Z,8.80
2023-04-05T07:04:27.008Z,8.60
2023-04-05T07:05:26.961Z,7.90
2023-04-05T07:06:26.963Z,8.10
2023-04-05T07:07:26.933Z,8.50
2023-04-05T07:08:26.926Z,8.20
2023-04-05T07:09:26.923Z,8.10
2023-04-05T07:10:26.912Z,8.40
2023-04-05T07:11:26.929Z,8.30
2023-04-05T07:12:26.888Z,7.80
2023-04-05T07:13:26.918Z,8.20
2023-04-05T07:14:26.877Z,8.40
2023-04-05T07:15:26.864Z,8.40
2023-04-05T07:16:26.962Z,8.40
2023-04-05T07:17:26.873Z,7.90
2023-04-05T07:18:26.852Z,8.90
2023-04-05T07:19:26.838Z,8.10
2023-04-05T07:20:26.840Z,8.20
2023-04-05T07:21:26.855Z,8.10
2023-04-05T07:22:26.814Z,8.10
2023-04-05T07:23:26.810Z,8.20
2023-04-05T07:24:26.804Z,7.70
2023-04-05T07:25:26.796Z,7.80
2023-04-05T07:26:26.817Z,8.10
2023-04-05T07:27:26.775Z,8.30
2023-04-05T07:28:26.770Z,8.10
2023-04-05T07:29:26.753Z,7.60
2023-04-05T07:30:27.758Z,8.30
2023-04-05T07:31:26.788Z,7.90
2023-04-05T07:32:26.936Z,8.50
2023-04-05T07:33:26.731Z,8.20
2023-04-05T07:34:26.729Z,7.90
2023-04-05T07:35:26.900Z,8.20
2023-04-05T07:36:27.638Z,8.10
2023-04-05T07:37:26.700Z,8.00
2023-04-05T07:38:27.713Z,8.40
2023-04-05T07:39:26.769Z,8.00
2023-04-05T07:40:26.694Z,7.90
2023-04-05T07:41:26.713Z,8.00
2023-04-05T07:42:26.688Z,8.20
2023-04-05T07:43:26.660Z,7.60
2023-04-05T07:44:26.648Z,7.90
2023-04-05T07:45:27.663Z,7.90
2023-04-05T07:46:26.746Z,8.20
2023-04-05T07:47:26.663Z,7.70
2023-04-05T07:48:26.626Z,7.60
2023-04-05T07:49:26.648Z,7.40
2023-04-05T07:50:26.632Z,7.60
2023-04-05T07:51:26.655Z,7.40
2023-04-05T07:52:26.595Z,7.10
2023-04-05T07:53:26.588Z,7.20
2023-04-05T07:54:26.610Z,7.30
2023-04-05T07:55:26.588Z,7.50
2023-04-05T07:56:26.590Z,7.30
2023-04-05T07:57:26.555Z,6.90
2023-04-05T07:58:26.549Z,6.80
2023-04-05T07:59:26.614Z,6.70
2023-04-05T08:00:26.564Z,6.70
2023-04-05T08:01:26.559Z,7.20
2023-04-05T08:02:26.548Z,6.90
2023-04-05T08:03:26.663Z,6.90
2023-04-05T08:04:26.512Z,7.20
2023-04-05T08:05:26.611Z,6.80
2023-04-05T08:06:26.516Z,7.20
2023-04-05T08:07:26.492Z,7.10
2023-04-05T08:08:26.489Z,7.20
2023-04-05T08:09:26.481Z,7.10
2023-04-05T08:10:26.462Z,7.30
2023-04-05T08:11:26.478Z,6.90
2023-04-05T08:12:26.445Z,7.20
2023-04-05T08:13:26.440Z,7.20
2023-04-05T08:14:26.426Z,6.80
2023-04-05T08:15:26.424Z,6.80
2023-04-05T08:16:26.509Z,6.80
2023-04-05T08:17:26.438Z,7.40
2023-04-05T08:18:26.415Z,7.10
2023-04-05T08:19:26.400Z,7.40
2023-04-05T08:20:26.389Z,7.00
2023-04-05T08:21:26.404Z,7.30
2023-04-05T08:22:26.373Z,6.80
2023-04-05T08:23:26.364Z,6.60
2023-04-05T08:24:26.407Z,6.70
2023-04-05T08:25:26.363Z,7.20
2023-04-05T08:26:26.369Z,7.10
2023-04-05T08:27:26.327Z,6.80
2023-04-05T08:28:26.314Z,6.70
2023-04-05T08:29:27.323Z,6.50
2023-04-05T08:30:26.310Z,6.70
2023-04-05T08:31:26.371Z,6.70
2023-04-05T08:32:26.308Z,6.60
2023-04-05T08:33:26.428Z,6.30
2023-04-05T08:34:26.279Z,6.90
2023-04-05T08:35:26.292Z,6.70
2023-04-05T08:36:26.290Z,6.80
2023-04-05T08:37:26.256Z,6.50
2023-04-05T08:38:26.275Z,6.00
2023-04-05T08:39:26.244Z,6.70
2023-04-05T08:40:26.242Z,6.40
2023-04-05T08:41:26.242Z,6.90
2023-04-05T08:42:26.251Z,6.00
2023-04-05T08:43:26.212Z,6.20
2023-04-05T08:44:26.202Z,5.80
2023-04-05T08:45:26.208Z,6.00
2023-04-05T08:46:26.233Z,6.20
2023-04-05T08:47:26.246Z,6.00
2023-04-05T08:48:26.179Z,5.60
2023-04-05T08:49:26.177Z,5.70
2023-04-05T08:50:26.170Z,5.90
2023-04-05T08:51:26.157Z,6.20
2023-04-05T08:52:26.174Z,5.70
2023-04-05T08:53:26.140Z,5.60
2023-04-05T08:54:26.151Z,5.50
2023-04-05T08:55:26.138Z,5.60
2023-04-05T08:56:26.135Z,6.00
2023-04-05T08:57:26.146Z,6.00
2023-04-05T08:58:26.105Z,6.10
2023-04-05T08:59:26.165Z,5.70
2023-04-05T09:00:26.095Z,5.60
2023-04-05T09:01:26.096Z,5.60
2023-04-05T09:02:26.192Z,5.80
2023-04-05T09:03:26.166Z,5.30
2023-04-05T09:04:26.057Z,5.40
2023-04-05T09:05:26.050Z,5.40
2023-04-05T09:06:26.047Z,5.70
2023-04-05T09:07:26.059Z,5.30
2023-04-05T09:08:26.036Z,4.80
2023-04-05T09:09:26.054Z,4.70
2023-04-05T09:10:26.011Z,4.60
2023-04-05T09:11:26.022Z,4.40
2023-04-05T09:12:26.043Z,4.70
2023-04-05T09:13:25.992Z,4.50
2023-04-05T09:14:25.984Z,4.60
2023-04-05T09:15:25.986Z,4.80
2023-04-05T09:16:25.998Z,4.60
2023-04-05T09:17:25.984Z,5.20
2023-04-05T09:18:27.279Z,5.20
2023-04-05T09:19:26.960Z,4.90
2023-04-05T09:20:26.017Z,4.40
2023-04-05T09:21:25.936Z,5.30
2023-04-05T09:22:25.946Z,5.00
2023-04-05T09:23:25.942Z,5.20
2023-04-05T09:24:25.916Z,5.50
2023-04-05T09:25:25.899Z,5.10
2023-04-05T09:26:25.896Z,5.50
2023-04-05T09:27:25.922Z,5.10
2023-04-05T09:28:25.891Z,4.50
2023-04-05T09:29:25.886Z,5.20
2023-04-05T09:30:25.877Z,5.00
2023-04-05T09:31:25.882Z,4.40
2023-04-05T09:32:25.907Z,4.40
2023-04-05T09:33:25.843Z,4.60
2023-04-05T09:34:25.835Z,4.30
2023-04-05T09:35:25.832Z,4.30
2023-04-05T09:36:25.836Z,4.50
2023-04-05T09:37:25.833Z,4.10
2023-04-05T09:38:25.798Z,4.20
2023-04-05T09:39:25.794Z,4.10
2023-04-05T09:40:25.784Z,4.10
2023-04-05T09:41:25.774Z,4.20
2023-04-05T09:42:26.835Z,4.20
2023-04-05T09:43:25.770Z,4.10
2023-04-05T09:44:25.758Z,4.20
2023-04-05T09:45:25.746Z,4.30
2023-04-05T09:46:25.754Z,4.00
2023-04-05T09:47:25.818Z,4.20
2023-04-05T09:48:25.728Z,4.10
2023-04-05T09:49:25.732Z,4.10
2023-04-05T09:50:25.708Z,3.90
2023-04-05T09:51:25.710Z,3.80
2023-04-05T09:52:25.731Z,4.20
2023-04-05T09:53:25.691Z,4.00
2023-04-05T09:54:25.682Z,3.90
2023-04-05T09:55:25.674Z,3.70
2023-04-05T09:56:25.662Z,4.10
2023-04-05T09:57:26.734Z,4.00
2023-04-05T09:58:25.650Z,4.00
2023-04-05T09:59:25.681Z,4.10
2023-04-05T10:00:25.651Z,4.20
2023-04-05T10:01:25.643Z,4.40
2023-04-05T10:02:25.735Z,4.80
2023-04-05T10:03:25.685Z,4.50
2023-04-05T10:04:26.754Z,4.50
2023-04-05T10:05:25.588Z,4.90
2023-04-05T10:06:25.588Z,4.50
2023-04-05T10:07:25.571Z,4.20
2023-04-05T10:08:25.603Z,4.60
2023-04-05T10:09:25.560Z,4.60
2023-04-05T10:10:25.605Z,4.30
2023-04-05T10:11:25.548Z,4.30
2023-04-05T10:12:25.543Z,4.40
2023-04-05T10:13:25.555Z,4.60
2023-04-05T10:14:25.528Z,4.00
2023-04-05T10:15:25.535Z,4.30
2023-04-05T10:16:25.550Z,4.10
2023-04-05T10:17:25.528Z,4.20
2023-04-05T10:18:25.520Z,4.10
2023-04-05T10:19:25.490Z,4.10
2023-04-05T10:20:25.495Z,3.90
2023-04-05T10:21:25.473Z,4.30
2023-04-05T10:22:25.459Z,4.50
2023-04-05T10:23:25.491Z,4.30
2023-04-05T10:24:25.465Z,4.40
2023-04-05T10:25:25.439Z,4.50
2023-04-05T10:26:25.438Z,4.40
2023-04-05T10:27:25.432Z,4.60
2023-04-05T10:28:25.459Z,4.40
2023-04-05T10:29:25.406Z,4.50
2023-04-05T10:30:25.466Z,4.40
2023-04-05T10:31:37.030Z,4.60
2023-04-05T10:32:27.404Z,4.90
2023-04-05T10:33:25.469Z,4.40
2023-04-05T10:34:25.433Z,4.30
2023-04-05T10:35:25.423Z,4.40
2023-04-05T10:36:25.385Z,4.60
2023-04-05T10:37:25.412Z,4.50
2023-04-05T10:38:25.379Z,4.40
2023-04-05T10:39:25.339Z,4.40
2023-04-05T10:40:25.368Z,4.40
2023-04-05T10:41:26.324Z,4.40
2023-04-05T10:42:57.296Z,4.30
2023-04-05T10:43:25.359Z,4.60
2023-04-05T10:44:26.979Z,5.10
2023-04-05T10:45:26.299Z,4.90
2023-04-05T10:46:25.331Z,5.00
2023-04-05T10:47:25.328Z,5.00
2023-04-05T10:48:25.314Z,4.70
2023-04-05T10:49:25.264Z,4.70
2023-04-05T10:50:25.284Z,4.60
2023-04-05T10:51:25.263Z,4.80
2023-04-05T10:52:25.232Z,4.30
2023-04-05T10:53:25.309Z,4.40
2023-04-05T10:54:25.413Z,4.50
2023-04-05T10:55:25.262Z,4.80
2023-04-05T10:56:25.226Z,4.70
2023-04-05T10:57:25.262Z,4.80
2023-04-05T10:58:25.250Z,4.80
2023-04-05T10:59:25.274Z,4.90
2023-04-05T11:00:25.190Z,5.00
2023-04-05T11:01:25.234Z,5.00
2023-04-05T11:02:25.202Z,4.90
2023-04-05T11:03:25.384Z,4.70
2023-04-05T11:04:25.257Z,5.00
2023-04-05T11:05:25.169Z,5.20
2023-04-05T11:06:25.171Z,4.70
2023-04-05T11:07:25.138Z,5.00
2023-04-05T11:08:25.193Z,5.10
2023-04-05T11:09:25.153Z,5.10
2023-04-05T11:10:25.107Z,4.70
2023-04-05T11:11:25.182Z,5.10
2023-04-05T11:12:25.094Z,5.00
2023-04-05T11:13:25.084Z,4.80
2023-04-05T11:14:25.187Z,4.70
2023-04-05T11:15:25.148Z,4.80
2023-04-05T11:16:25.123Z,4.70
2023-04-05T11:17:25.072Z,4.70
2023-04-05T11:18:25.057Z,4.90
2023-04-05T11:19:25.247Z,5.20
2023-04-05T11:20:25.054Z,4.70
2023-04-05T11:21:25.014Z,4.80
2023-04-05T11:22:26.020Z,5.00
2023-04-05T11:23:25.309Z,5.00
2023-04-05T11:24:25.039Z,4.90
2023-04-05T11:25:25.007Z,5.20
2023-04-05T11:26:24.988Z,4.80
2023-04-05T11:27:24.985Z,4.80
2023-04-05T11:28:24.997Z,5.00
2023-04-05T11:29:24.994Z,5.10
2023-04-05T11:30:24.960Z,5.10
2023-04-05T11:31:25.009Z,5.20
2023-04-05T11:32:24.977Z,4.80
2023-04-05T11:33:24.967Z,5.00
2023-04-05T11:34:25.400Z,5.20
2023-04-05T11:35:25.936Z,5.00
2023-04-05T11:36:24.915Z,4.80
2023-04-05T11:37:24.908Z,5.00
2023-04-05T11:38:24.900Z,4.80
2023-04-05T11:39:24.923Z,4.70
2023-04-05T11:40:24.905Z,4.80
2023-04-05T11:41:24.869Z,5.10
2023-04-05T11:42:24.876Z,4.70
2023-04-05T11:43:24.862Z,4.70
2023-04-05T11:44:24.883Z,5.20
2023-04-05T11:45:24.868Z,4.90
2023-04-05T11:46:24.893Z,4.80
2023-04-05T11:47:24.845Z,4.80
2023-04-05T11:48:24.848Z,5.30
2023-04-05T11:49:24.846Z,5.10
2023-04-05T11:50:24.799Z,5.90
2023-04-05T11:51:24.796Z,5.20
2023-04-05T11:52:24.788Z,4.90
2023-04-05T11:53:24.783Z,5.00
2023-04-05T11:54:24.822Z,4.80
2023-04-05T11:55:24.767Z,4.90
2023-04-05T11:56:24.757Z,5.00
2023-04-05T11:57:24.749Z,4.90
2023-04-05T11:58:24.756Z,6.20
2023-04-05T11:59:24.777Z,7.00
2023-04-05T12:00:24.755Z,5.90
2023-04-05T12:01:24.722Z,4.60
2023-04-05T12:02:24.816Z,5.30
2023-04-05T12:03:24.738Z,5.60
2023-04-05T12:04:24.743Z,5.10
2023-04-05T12:05:24.718Z,5.30
2023-04-05T12:06:24.682Z,5.30
2023-04-05T12:07:24.675Z,5.00
2023-04-05T12:08:24.665Z,4.90
2023-04-05T12:09:24.666Z,5.00
2023-04-05T12:10:24.673Z,4.70
2023-04-05T12:11:24.647Z,4.40
2023-04-05T12:12:24.642Z,4.90
2023-04-05T12:13:24.628Z,4.80
2023-04-05T12:14:24.621Z,4.80
2023-04-05T12:15:24.668Z,4.90
2023-04-05T12:16:24.678Z,4.90
2023-04-05T12:17:24.658Z,4.90
2023-04-05T12:18:24.585Z,5.30
2023-04-05T12:19:24.591Z,4.90
2023-04-05T12:20:24.649Z,4.90
2023-04-05T12:21:24.558Z,4.90
2023-04-05T12:22:24.560Z,5.10
2023-04-05T12:23:24.559Z,4.80
2023-04-05T12:24:24.555Z,5.10
2023-04-05T12:25:24.565Z,5.00
2023-04-05T12:26:24.530Z,4.90
2023-04-05T12:27:24.523Z,4.80
2023-04-05T12:28:24.514Z,4.80
2023-04-05T12:29:24.527Z,4.80
2023-04-05T12:30:24.597Z,4.90
2023-04-05T12:31:24.501Z,5.10
2023-04-05T12:32:24.494Z,4.80
2023-04-05T12:33:25.487Z,5.80
2023-04-05T12:34:24.485Z,4.90
2023-04-05T12:35:24.546Z,4.60
2023-04-05T12:36:24.548Z,5.40
2023-04-05T12:37:24.481Z,6.20
2023-04-05T12:38:24.448Z,5.50
2023-04-05T12:39:24.443Z,4.90
2023-04-05T12:40:24.467Z,4.70
2023-04-05T12:41:24.429Z,4.80
2023-04-05T12:42:24.421Z,4.30
2023-04-05T12:43:24.424Z,5.00
2023-04-05T12:44:24.409Z,5.10
2023-04-05T12:45:24.427Z,5.00
2023-04-05T12:46:24.481Z,4.80
2023-04-05T12:47:24.412Z,5.30
2023-04-05T12:48:24.375Z,5.30
2023-04-05T12:49:24.370Z,5.10
2023-04-05T12:50:24.384Z,5.10
2023-04-05T12:51:24.358Z,4.90
2023-04-05T12:52:24.336Z,4.80
2023-04-05T12:53:24.336Z,4.80
2023-04-05T12:54:24.369Z,5.30
2023-04-05T12:55:24.312Z,5.10
2023-04-05T12:56:24.333Z,4.90
2023-04-05T12:57:24.298Z,4.90
2023-04-05T12:58:24.350Z,4.90
2023-04-05T12:59:24.312Z,4.70
2023-04-05T13:00:25.320Z,4.70
2023-04-05T13:01:24.303Z,4.80
2023-04-05T13:02:24.333Z,4.90
2023-04-05T13:03:24.299Z,4.90
2023-04-05T13:04:24.299Z,4.90
2023-04-05T13:05:24.270Z,4.70
2023-04-05T13:06:24.261Z,4.80
2023-04-05T13:07:24.226Z,4.60
2023-04-05T13:08:24.233Z,4.80
2023-04-05T13:09:24.209Z,4.70
2023-04-05T13:10:24.213Z,4.60
2023-04-05T13:11:24.230Z,4.40
2023-04-05T13:12:24.195Z,4.80
2023-04-05T13:13:24.176Z,4.80
2023-04-05T13:14:24.205Z,5.10
2023-04-05T13:15:24.182Z,4.80
2023-04-05T13:16:24.220Z,5.40
2023-04-05T13:17:24.179Z,5.40
2023-04-05T13:18:24.149Z,5.10